Hanseatic Scout — V2BM2 — position and weather

sailwx.info

Track history (hours):
 
Tides and Currents Weather Stations Pressure Air Temp Water Temp Dewpoint Dewpoint Depression Visibility Wind Speed Wind Dir Waves Ship Positions

Hanseatic Scout

Last reported at 2014-Nov-24 18:19 UTC. Time now 2014-Nov-27 21:59 UTC.
Position N 37°20' W 009°41'.

Length 89 m; draft 6.2 m.

Type: Ship (hazmat cat C). MMSI: 304867000.

Date/timePositionNaut miles runAvg speedWind from/ knotsBaromVisibWave heightAir tempDewpointWater temp
2014-Nov-24 18:19N 37°20' W 009°41'7 9.6
2014-Nov-24 17:32N 37°27' W 009°43'19 9.6
2014-Nov-24 15:33N 37°45' W 009°49'  
2014-Nov-20 19:11N 50°06' W 002°24'21 8.1
2014-Nov-20 16:32N 50°22' W 002°02'9 9.2
2014-Nov-20 15:33N 50°28' W 001°52'1010.2
2014-Nov-20 14:33N 50°36' W 001°42'1211.5
2014-Nov-20 13:34N 50°44' W 001°28'9 8.6
2014-Nov-20 12:34N 50°51' W 001°21'3 2.6
2014-Nov-20 11:32N 50°53' W 001°24'0 0.0
2014-Nov-20 07:26N 50°53' W 001°24'0 0.0
2014-Nov-20 06:20N 50°53' W 001°24'0 0.0
2014-Nov-20 04:32N 50°53' W 001°24'0 0.0
2014-Nov-20 02:26N 50°53' W 001°24'0 0.0
2014-Nov-19 21:26N 50°53' W 001°24'0 0.0
2014-Nov-19 18:20N 50°53' W 001°24'0 0.0
2014-Nov-19 17:33N 50°53' W 001°24'0 0.0
2014-Nov-19 13:22N 50°53' W 001°24'0 0.0
2014-Nov-19 09:04N 50°53' W 001°24'0 0.0
2014-Nov-19 08:28N 50°53' W 001°24'0 0.0
2014-Nov-19 02:24N 50°53' W 001°24'0 0.0
2014-Nov-19 01:30N 50°53' W 001°24'0 0.0
2014-Nov-19 00:30N 50°53' W 001°24'0 0.0
2014-Nov-18 22:24N 50°53' W 001°24'0 0.0
2014-Nov-18 21:17N 50°53' W 001°24'0 0.0
2014-Nov-18 20:23N 50°53' W 001°24'0 0.0
2014-Nov-18 19:23N 50°53' W 001°24'0 0.0
2014-Nov-18 18:17N 50°53' W 001°24'1 0.7
2014-Nov-18 17:33N 50°53' W 001°23'1110.5
2014-Nov-18 16:33N 50°46' W 001°10'5 5.3
2014-Nov-18 15:33N 50°43' W 001°04'0 0.1
2014-Nov-18 14:30N 50°43' W 001°04'0 0.0
2014-Nov-18 13:33N 50°43' W 001°04'0 0.0
2014-Nov-18 12:33N 50°43' W 001°04'0 0.0
2014-Nov-18 11:33N 50°43' W 001°04'0 0.0
2014-Nov-18 10:33N 50°43' W 001°04'0 0.0
2014-Nov-18 09:33N 50°43' W 001°04'0 0.0
2014-Nov-18 08:32N 50°43' W 001°04'0 0.0
2014-Nov-18 07:32N 50°43' W 001°04'0 0.0
2014-Nov-18 06:32N 50°43' W 001°04'0 0.0
2014-Nov-18 05:32N 50°43' W 001°04'0 0.0
2014-Nov-18 04:32N 50°43' W 001°04'0 0.0
2014-Nov-18 03:32N 50°43' W 001°04'0 0.0
2014-Nov-18 02:32N 50°43' W 001°04'0 0.0
2014-Nov-18 01:32N 50°43' W 001°04'0 0.0
2014-Nov-18 00:32N 50°43' W 001°04'0 0.0
2014-Nov-17 23:32N 50°43' W 001°04'0 0.0
2014-Nov-17 22:29N 50°43' W 001°04'0 0.0
2014-Nov-17 21:32N 50°43' W 001°04'0 0.0
2014-Nov-17 20:32N 50°43' W 001°04'0 0.0
2014-Nov-17 19:32N 50°43' W 001°04'0 0.0
2014-Nov-17 18:29N 50°43' W 001°04'0 0.0
2014-Nov-17 17:32N 50°43' W 001°04'0 0.1
2014-Nov-17 16:32N 50°43' W 001°04'0 0.0
2014-Nov-17 15:32N 50°43' W 001°04'0 0.0
2014-Nov-17 14:32N 50°43' W 001°04'0 0.0
2014-Nov-17 13:32N 50°43' W 001°03'0 0.0
2014-Nov-17 12:32N 50°43' W 001°03'0 0.0
2014-Nov-17 11:32N 50°43' W 001°03'0 0.0
2014-Nov-17 10:32N 50°43' W 001°03'0 0.0
2014-Nov-17 09:32N 50°43' W 001°03'0 0.0
2014-Nov-17 08:32N 50°43' W 001°03'0 0.0
2014-Nov-17 07:32N 50°43' W 001°03'0 0.0
2014-Nov-17 06:32N 50°43' W 001°03'0 0.0
2014-Nov-17 05:32N 50°43' W 001°03'0 0.0
2014-Nov-17 04:32N 50°43' W 001°03'0 0.0
2014-Nov-17 03:32N 50°43' W 001°03'0 0.0
2014-Nov-17 02:32N 50°43' W 001°03'0 0.0
2014-Nov-17 01:32N 50°43' W 001°03'0 0.0
2014-Nov-17 00:32N 50°43' W 001°04'0 0.0
2014-Nov-16 23:32N 50°43' W 001°04'0 0.0
2014-Nov-16 22:32N 50°43' W 001°04'0 0.0
2014-Nov-16 21:29N 50°43' W 001°04'0 0.0
2014-Nov-16 20:32N 50°43' W 001°04'0 0.0
2014-Nov-16 19:32N 50°43' W 001°04'0 0.0
2014-Nov-16 18:32N 50°43' W 001°04'0 0.0
2014-Nov-16 17:33N 50°43' W 001°04'0 0.0
2014-Nov-16 16:33N 50°43' W 001°04'0 0.0
2014-Nov-16 15:33N 50°43' W 001°04'0 0.0
2014-Nov-16 14:33N 50°43' W 001°04'0 0.0
2014-Nov-16 13:33N 50°43' W 001°04'0 0.0
2014-Nov-16 12:33N 50°43' W 001°04'0 0.1
2014-Nov-16 11:33N 50°43' W 001°04'0 0.0
2014-Nov-16 10:33N 50°43' W 001°04'0 0.0
2014-Nov-16 09:31N 50°43' W 001°04'0 0.0
2014-Nov-16 08:31N 50°43' W 001°04'0 0.0
2014-Nov-16 07:28N 50°43' W 001°04'0 0.0
2014-Nov-16 06:28N 50°43' W 001°04'0 0.0
2014-Nov-16 05:31N 50°43' W 001°04'0 0.0
2014-Nov-16 04:28N 50°43' W 001°04'0 0.0
2014-Nov-16 03:31N 50°43' W 001°04'0 0.0
2014-Nov-16 02:31N 50°43' W 001°04'0 0.0
2014-Nov-16 01:31N 50°43' W 001°04'0 0.0
2014-Nov-16 00:31N 50°43' W 001°04'0 0.0
2014-Nov-15 23:31N 50°43' W 001°04'0 0.0
2014-Nov-15 22:31N 50°43' W 001°04'0 0.0
2014-Nov-15 21:31N 50°43' W 001°04'0 0.0
2014-Nov-15 20:31N 50°43' W 001°04'0 0.0
2014-Nov-15 19:31N 50°43' W 001°04'0 0.0
2014-Nov-15 18:31N 50°43' W 001°04'0 0.0
2014-Nov-15 17:31N 50°43' W 001°04'0 0.0
2014-Nov-15 16:28N 50°43' W 001°04'0 0.0
2014-Nov-15 15:31N 50°43' W 001°04'0 0.0
2014-Nov-15 14:31N 50°43' W 001°04'0 0.0
2014-Nov-15 13:33N 50°43' W 001°03'0 0.0
2014-Nov-15 12:34N 50°43' W 001°03'0 0.0
2014-Nov-15 11:34N 50°43' W 001°03'0 0.0
2014-Nov-15 10:31N 50°43' W 001°04'0 0.0
2014-Nov-15 09:33N 50°43' W 001°04'0 0.0
2014-Nov-15 08:31N 50°43' W 001°04'0 0.0
2014-Nov-15 07:33N 50°43' W 001°04'0 0.0
2014-Nov-15 06:34N 50°43' W 001°04'0 0.0
2014-Nov-15 05:33N 50°43' W 001°04'0 0.0
2014-Nov-15 04:31N 50°43' W 001°04'0 0.0
2014-Nov-15 03:31N 50°43' W 001°04'0 0.0
2014-Nov-15 02:31N 50°43' W 001°04'0 0.0
2014-Nov-15 01:31N 50°43' W 001°03'0 0.0
2014-Nov-15 00:31N 50°43' W 001°04'0 0.0
2014-Nov-14 23:31N 50°43' W 001°04'0 0.0
2014-Nov-14 22:33N 50°43' W 001°04'7 6.6
2014-Nov-14 21:33N 50°40' W 000°54'1211.3
2014-Nov-14 20:32N 50°35' W 000°37'2311.4
2014-Nov-14 18:31N 50°33' W 000°01'  
Track history (hours):
 
Tides and Currents Weather Stations Pressure Air Temp Water Temp Dewpoint Dewpoint Depression Visibility Wind Speed Wind Dir Waves Ship Positions

Hanseatic Scout

Last reported at 2014-Nov-24 18:19 UTC. Time now 2014-Nov-27 21:59 UTC.
Position N 37°20' W 009°41'.

Length 89 m; draft 6.2 m.

Type: Ship (hazmat cat C). MMSI: 304867000.

Date/timePositionNaut miles runAvg speedWind from/ knotsBaromVisibWave heightAir tempDewpointWater temp
2014-Nov-24 18:19N 37°20' W 009°41'7 9.6
2014-Nov-24 17:32N 37°27' W 009°43'19 9.6
2014-Nov-24 15:33N 37°45' W 009°49'  
2014-Nov-20 19:11N 50°06' W 002°24'21 8.1
2014-Nov-20 16:32N 50°22' W 002°02'9 9.2
2014-Nov-20 15:33N 50°28' W 001°52'1010.2
2014-Nov-20 14:33N 50°36' W 001°42'1211.5
2014-Nov-20 13:34N 50°44' W 001°28'9 8.6
2014-Nov-20 12:34N 50°51' W 001°21'3 2.6
2014-Nov-20 11:32N 50°53' W 001°24'0 0.0
2014-Nov-20 07:26N 50°53' W 001°24'0 0.0
2014-Nov-20 06:20N 50°53' W 001°24'0 0.0
2014-Nov-20 04:32N 50°53' W 001°24'0 0.0
2014-Nov-20 02:26N 50°53' W 001°24'0 0.0
2014-Nov-19 21:26N 50°53' W 001°24'0 0.0
2014-Nov-19 18:20N 50°53' W 001°24'0 0.0
2014-Nov-19 17:33N 50°53' W 001°24'0 0.0
2014-Nov-19 13:22N 50°53' W 001°24'0 0.0
2014-Nov-19 09:04N 50°53' W 001°24'0 0.0
2014-Nov-19 08:28N 50°53' W 001°24'0 0.0
2014-Nov-19 02:24N 50°53' W 001°24'0 0.0
2014-Nov-19 01:30N 50°53' W 001°24'0 0.0
2014-Nov-19 00:30N 50°53' W 001°24'0 0.0
2014-Nov-18 22:24N 50°53' W 001°24'0 0.0
2014-Nov-18 21:17N 50°53' W 001°24'0 0.0
2014-Nov-18 20:23N 50°53' W 001°24'0 0.0
2014-Nov-18 19:23N 50°53' W 001°24'0 0.0
2014-Nov-18 18:17N 50°53' W 001°24'1 0.7
2014-Nov-18 17:33N 50°53' W 001°23'1110.5
2014-Nov-18 16:33N 50°46' W 001°10'5 5.3
2014-Nov-18 15:33N 50°43' W 001°04'0 0.1
2014-Nov-18 14:30N 50°43' W 001°04'0 0.0
2014-Nov-18 13:33N 50°43' W 001°04'0 0.0
2014-Nov-18 12:33N 50°43' W 001°04'0 0.0
2014-Nov-18 11:33N 50°43' W 001°04'0 0.0
2014-Nov-18 10:33N 50°43' W 001°04'0 0.0
2014-Nov-18 09:33N 50°43' W 001°04'0 0.0
2014-Nov-18 08:32N 50°43' W 001°04'0 0.0
2014-Nov-18 07:32N 50°43' W 001°04'0 0.0
2014-Nov-18 06:32N 50°43' W 001°04'0 0.0
2014-Nov-18 05:32N 50°43' W 001°04'0 0.0
2014-Nov-18 04:32N 50°43' W 001°04'0 0.0
2014-Nov-18 03:32N 50°43' W 001°04'0 0.0
2014-Nov-18 02:32N 50°43' W 001°04'0 0.0
2014-Nov-18 01:32N 50°43' W 001°04'0 0.0
2014-Nov-18 00:32N 50°43' W 001°04'0 0.0
2014-Nov-17 23:32N 50°43' W 001°04'0 0.0
2014-Nov-17 22:29N 50°43' W 001°04'0 0.0
2014-Nov-17 21:32N 50°43' W 001°04'0 0.0
2014-Nov-17 20:32N 50°43' W 001°04'0 0.0
2014-Nov-17 19:32N 50°43' W 001°04'0 0.0
2014-Nov-17 18:29N 50°43' W 001°04'0 0.0
2014-Nov-17 17:32N 50°43' W 001°04'0 0.1
2014-Nov-17 16:32N 50°43' W 001°04'0 0.0
2014-Nov-17 15:32N 50°43' W 001°04'0 0.0
2014-Nov-17 14:32N 50°43' W 001°04'0 0.0
2014-Nov-17 13:32N 50°43' W 001°03'0 0.0
2014-Nov-17 12:32N 50°43' W 001°03'0 0.0
2014-Nov-17 11:32N 50°43' W 001°03'0 0.0
2014-Nov-17 10:32N 50°43' W 001°03'0 0.0
2014-Nov-17 09:32N 50°43' W 001°03'0 0.0
2014-Nov-17 08:32N 50°43' W 001°03'0 0.0
2014-Nov-17 07:32N 50°43' W 001°03'0 0.0
2014-Nov-17 06:32N 50°43' W 001°03'0 0.0
2014-Nov-17 05:32N 50°43' W 001°03'0 0.0
2014-Nov-17 04:32N 50°43' W 001°03'0 0.0
2014-Nov-17 03:32N 50°43' W 001°03'0 0.0
2014-Nov-17 02:32N 50°43' W 001°03'0 0.0
2014-Nov-17 01:32N 50°43' W 001°03'0 0.0
2014-Nov-17 00:32N 50°43' W 001°04'0 0.0
2014-Nov-16 23:32N 50°43' W 001°04'0 0.0
2014-Nov-16 22:32N 50°43' W 001°04'0 0.0
2014-Nov-16 21:29N 50°43' W 001°04'0 0.0
2014-Nov-16 20:32N 50°43' W 001°04'0 0.0
2014-Nov-16 19:32N 50°43' W 001°04'0 0.0
2014-Nov-16 18:32N 50°43' W 001°04'0 0.0
2014-Nov-16 17:33N 50°43' W 001°04'0 0.0
2014-Nov-16 16:33N 50°43' W 001°04'0 0.0
2014-Nov-16 15:33N 50°43' W 001°04'0 0.0
2014-Nov-16 14:33N 50°43' W 001°04'0 0.0
2014-Nov-16 13:33N 50°43' W 001°04'0 0.0
2014-Nov-16 12:33N 50°43' W 001°04'0 0.1
2014-Nov-16 11:33N 50°43' W 001°04'0 0.0
2014-Nov-16 10:33N 50°43' W 001°04'0 0.0
2014-Nov-16 09:31N 50°43' W 001°04'0 0.0
2014-Nov-16 08:31N 50°43' W 001°04'0 0.0
2014-Nov-16 07:28N 50°43' W 001°04'0 0.0
2014-Nov-16 06:28N 50°43' W 001°04'0 0.0
2014-Nov-16 05:31N 50°43' W 001°04'0 0.0
2014-Nov-16 04:28N 50°43' W 001°04'0 0.0
2014-Nov-16 03:31N 50°43' W 001°04'0 0.0
2014-Nov-16 02:31N 50°43' W 001°04'0 0.0
2014-Nov-16 01:31N 50°43' W 001°04'0 0.0
2014-Nov-16 00:31N 50°43' W 001°04'0 0.0
2014-Nov-15 23:31N 50°43' W 001°04'0 0.0
2014-Nov-15 22:31N 50°43' W 001°04'0 0.0
2014-Nov-15 21:31N 50°43' W 001°04'0 0.0
2014-Nov-15 20:31N 50°43' W 001°04'0 0.0
2014-Nov-15 19:31N 50°43' W 001°04'0 0.0
2014-Nov-15 18:31N 50°43' W 001°04'0 0.0
2014-Nov-15 17:31N 50°43' W 001°04'0 0.0
2014-Nov-15 16:28N 50°43' W 001°04'0 0.0
2014-Nov-15 15:31N 50°43' W 001°04'0 0.0
2014-Nov-15 14:31N 50°43' W 001°04'0 0.0
2014-Nov-15 13:33N 50°43' W 001°03'0 0.0
2014-Nov-15 12:34N 50°43' W 001°03'0 0.0
2014-Nov-15 11:34N 50°43' W 001°03'0 0.0
2014-Nov-15 10:31N 50°43' W 001°04'0 0.0
2014-Nov-15 09:33N 50°43' W 001°04'0 0.0
2014-Nov-15 08:31N 50°43' W 001°04'0 0.0
2014-Nov-15 07:33N 50°43' W 001°04'0 0.0
2014-Nov-15 06:34N 50°43' W 001°04'0 0.0
2014-Nov-15 05:33N 50°43' W 001°04'0 0.0
2014-Nov-15 04:31N 50°43' W 001°04'0 0.0
2014-Nov-15 03:31N 50°43' W 001°04'0 0.0
2014-Nov-15 02:31N 50°43' W 001°04'0 0.0
2014-Nov-15 01:31N 50°43' W 001°03'0 0.0
2014-Nov-15 00:31N 50°43' W 001°04'0 0.0
2014-Nov-14 23:31N 50°43' W 001°04'0 0.0
2014-Nov-14 22:33N 50°43' W 001°04'7 6.6
2014-Nov-14 21:33N 50°40' W 000°54'1211.3
2014-Nov-14 20:32N 50°35' W 000°37'2311.4
2014-Nov-14 18:31N 50°33' W 000°01'  

Dump ship's entire track history